createdAt,value
2023-05-07T00:00:16.480Z,6.05
2023-05-07T00:02:45.730Z,3.28
2023-05-07T00:05:13.924Z,4.25
2023-05-07T00:07:41.671Z,3.90
2023-05-07T00:10:10.103Z,6.95
2023-05-07T00:12:37.270Z,8.32
2023-05-07T00:15:05.948Z,4.65
2023-05-07T00:17:34.386Z,4.72
2023-05-07T00:20:01.623Z,8.90
2023-05-07T00:22:31.117Z,4.22
2023-05-07T00:24:58.222Z,5.80
2023-05-07T00:27:26.239Z,4.10
2023-05-07T00:29:53.240Z,5.10
2023-05-07T00:32:20.529Z,8.95
2023-05-07T00:34:47.762Z,7.55
2023-05-07T00:37:14.823Z,5.22
2023-05-07T00:39:41.836Z,4.80
2023-05-07T00:42:09.142Z,4.28
2023-05-07T00:44:36.157Z,5.25
2023-05-07T00:47:04.577Z,4.72
2023-05-07T00:49:43.626Z,7.90
2023-05-07T00:52:17.170Z,5.13
2023-05-07T00:54:44.423Z,3.25
2023-05-07T00:57:12.392Z,4.95
2023-05-07T00:59:40.799Z,4.65
2023-05-07T01:02:08.706Z,6.75
2023-05-07T01:04:36.447Z,5.88
2023-05-07T01:07:04.501Z,4.82
2023-05-07T01:09:31.859Z,3.78
2023-05-07T01:11:59.886Z,4.35
2023-05-07T01:14:27.113Z,3.95
2023-05-07T01:16:55.087Z,10.27
2023-05-07T01:19:22.214Z,5.03
2023-05-07T01:21:52.037Z,5.18
2023-05-07T01:24:19.722Z,4.70
2023-05-07T01:26:46.849Z,5.20
2023-05-07T01:29:14.018Z,5.25
2023-05-07T01:31:44.026Z,3.75
2023-05-07T01:34:13.996Z,4.78
2023-05-07T01:36:43.921Z,3.70
2023-05-07T01:39:11.730Z,4.10
2023-05-07T01:41:38.798Z,2.90
2023-05-07T01:44:07.244Z,5.90
2023-05-07T01:46:35.247Z,6.13
2023-05-07T01:49:02.445Z,4.07
2023-05-07T01:51:29.512Z,4.10
2023-05-07T01:53:56.779Z,4.25
2023-05-07T01:56:25.246Z,4.03
2023-05-07T01:58:52.871Z,8.38
2023-05-07T02:01:20.082Z,6.53
2023-05-07T02:03:47.686Z,4.63
2023-05-07T02:06:14.902Z,7.13
2023-05-07T02:08:41.917Z,4.25
2023-05-07T02:11:08.953Z,3.63
2023-05-07T02:13:36.097Z,3.20
2023-05-07T02:16:04.162Z,7.95
2023-05-07T02:18:31.544Z,2.63
2023-05-07T02:20:58.560Z,5.03
2023-05-07T02:23:25.725Z,4.75
2023-05-07T02:25:52.964Z,3.08
2023-05-07T02:28:19.950Z,3.30
2023-05-07T02:30:47.097Z,4.03
2023-05-07T02:33:15.061Z,3.30
2023-05-07T02:35:42.266Z,4.50
2023-05-07T02:38:11.659Z,4.72
2023-05-07T02:40:41.500Z,4.25
2023-05-07T02:43:08.972Z,3.83
2023-05-07T02:45:37.284Z,6.07
2023-05-07T02:48:06.632Z,5.70
2023-05-07T02:50:33.889Z,5.18
2023-05-07T02:53:00.962Z,4.53
2023-05-07T02:55:28.017Z,3.63
2023-05-07T02:57:55.046Z,7.53
2023-05-07T03:00:22.783Z,4.25
2023-05-07T03:02:49.877Z,7.78
2023-05-07T03:05:16.971Z,5.85
2023-05-07T03:07:46.371Z,4.43
2023-05-07T03:10:13.497Z,6.70
2023-05-07T03:12:40.768Z,6.85
2023-05-07T03:15:09.113Z,4.47
2023-05-07T03:17:36.274Z,7.05
2023-05-07T03:20:03.721Z,7.45
2023-05-07T03:22:30.847Z,5.65
2023-05-07T03:24:58.199Z,6.93
2023-05-07T03:27:25.190Z,8.82
2023-05-07T03:29:52.244Z,7.30
2023-05-07T03:32:19.306Z,7.05
2023-05-07T03:34:46.434Z,8.07
2023-05-07T03:37:13.464Z,8.23
2023-05-07T03:39:40.563Z,8.30
2023-05-07T03:42:08.114Z,11.20
2023-05-07T03:44:37.141Z,11.05
2023-05-07T03:47:05.139Z,12.98
2023-05-07T03:49:32.165Z,10.45
2023-05-07T03:51:59.202Z,13.35
2023-05-07T03:54:26.260Z,15.68
2023-05-07T03:56:53.266Z,15.05
2023-05-07T03:59:20.390Z,16.23
2023-05-07T04:01:47.443Z,14.68
2023-05-07T04:04:15.042Z,15.45
2023-05-07T04:06:42.194Z,13.70
2023-05-07T04:09:09.554Z,13.43
2023-05-07T04:11:37.345Z,14.95
2023-05-07T04:14:04.470Z,15.02
2023-05-07T04:16:31.478Z,14.75
2023-05-07T04:18:58.531Z,13.95
2023-05-07T04:21:26.876Z,16.52
2023-05-07T04:23:53.884Z,18.00
2023-05-07T04:26:22.215Z,17.25
2023-05-07T04:28:49.237Z,17.83
2023-05-07T04:31:16.868Z,20.50
2023-05-07T04:33:43.943Z,20.52
2023-05-07T04:36:11.087Z,20.85
2023-05-07T04:38:38.565Z,18.92
2023-05-07T04:41:07.088Z,19.25
2023-05-07T04:43:34.300Z,19.48
2023-05-07T04:46:01.677Z,20.73
2023-05-07T04:48:29.901Z,22.08
2023-05-07T04:50:56.980Z,18.60
2023-05-07T04:53:24.654Z,20.63
2023-05-07T04:55:57.943Z,24.02
2023-05-07T04:58:25.340Z,22.95
2023-05-07T05:00:52.980Z,25.65
2023-05-07T05:03:20.132Z,24.83
2023-05-07T05:05:47.239Z,26.77
2023-05-07T05:08:14.299Z,27.05
2023-05-07T05:10:42.640Z,28.50
2023-05-07T05:13:10.224Z,26.48
2023-05-07T05:15:37.236Z,26.75
2023-05-07T05:18:04.388Z,32.25
2023-05-07T05:20:31.462Z,29.55
2023-05-07T05:22:58.473Z,36.92
2023-05-07T05:25:25.487Z,28.60
2023-05-07T05:27:52.541Z,30.58
2023-05-07T05:30:21.162Z,30.23
2023-05-07T05:32:48.371Z,36.25
2023-05-07T05:35:15.484Z,28.92
2023-05-07T05:37:42.574Z,36.63
2023-05-07T05:40:10.401Z,34.50
2023-05-07T05:42:37.636Z,33.70
2023-05-07T05:45:05.739Z,33.83
2023-05-07T05:47:32.835Z,34.63
2023-05-07T05:49:59.911Z,36.53
2023-05-07T05:52:27.008Z,33.17
2023-05-07T05:54:54.902Z,32.83
2023-05-07T05:57:22.130Z,33.88
2023-05-07T05:59:49.303Z,31.17
2023-05-07T06:02:16.447Z,30.33
2023-05-07T06:04:44.016Z,29.85
2023-05-07T06:07:11.201Z,34.33
2023-05-07T06:09:38.209Z,32.03
2023-05-07T06:12:05.511Z,32.47
2023-05-07T06:14:32.586Z,32.63
2023-05-07T06:16:59.628Z,30.08
2023-05-07T06:19:27.692Z,31.63
2023-05-07T06:21:55.172Z,37.47
2023-05-07T06:24:22.178Z,31.58
2023-05-07T06:26:49.401Z,30.27
2023-05-07T06:29:16.404Z,30.67
2023-05-07T06:31:43.472Z,34.42
2023-05-07T06:34:11.320Z,26.10
2023-05-07T06:36:38.367Z,28.52
2023-05-07T06:39:05.401Z,31.52
2023-05-07T06:41:32.442Z,27.92
2023-05-07T06:43:59.443Z,24.20
2023-05-07T06:46:26.605Z,24.63
2023-05-07T06:48:53.727Z,26.70
2023-05-07T06:51:20.878Z,25.00
2023-05-07T06:53:47.884Z,28.85
2023-05-07T06:56:14.922Z,26.38
2023-05-07T06:58:42.019Z,30.90
2023-05-07T07:01:09.018Z,28.58
2023-05-07T07:03:36.208Z,27.50
2023-05-07T07:06:04.219Z,29.77
2023-05-07T07:08:31.331Z,27.02
2023-05-07T07:10:58.884Z,27.20
2023-05-07T07:13:26.157Z,24.33
2023-05-07T07:15:54.571Z,26.92
2023-05-07T07:18:21.694Z,28.63
2023-05-07T07:20:48.805Z,28.35
2023-05-07T07:23:15.914Z,27.50
2023-05-07T07:25:42.996Z,30.48
2023-05-07T07:28:10.057Z,25.02
2023-05-07T07:30:37.117Z,26.33
2023-05-07T07:33:04.471Z,30.27
2023-05-07T07:35:34.765Z,28.65
2023-05-07T07:38:02.577Z,23.63
2023-05-07T07:40:29.715Z,30.02
2023-05-07T07:42:57.666Z,25.85
2023-05-07T07:45:24.755Z,24.20
2023-05-07T07:47:51.861Z,27.88
2023-05-07T07:50:28.727Z,26.10
2023-05-07T07:53:03.338Z,25.35
2023-05-07T07:55:32.142Z,27.48
2023-05-07T07:57:59.202Z,27.48
2023-05-07T08:00:26.355Z,24.33
2023-05-07T08:02:53.583Z,23.88
2023-05-07T08:05:20.855Z,24.27
2023-05-07T08:07:53.008Z,22.83
2023-05-07T08:10:22.315Z,23.15
2023-05-07T08:12:50.887Z,26.60
2023-05-07T08:15:18.658Z,25.27
2023-05-07T08:17:45.924Z,22.75
2023-05-07T08:20:13.399Z,17.38
2023-05-07T08:22:41.264Z,22.48
2023-05-07T08:25:08.932Z,18.70
2023-05-07T08:27:36.087Z,18.50
2023-05-07T08:30:04.173Z,18.42
2023-05-07T08:32:31.319Z,17.88
2023-05-07T08:34:58.330Z,20.77
2023-05-07T08:37:25.416Z,16.45
2023-05-07T08:39:52.463Z,18.08
2023-05-07T08:42:21.703Z,21.50
2023-05-07T08:44:54.074Z,16.05
2023-05-07T08:47:27.463Z,16.23
2023-05-07T08:49:56.418Z,17.75
2023-05-07T08:52:23.569Z,17.40
2023-05-07T08:54:51.140Z,25.55
2023-05-07T08:57:18.258Z,20.75
2023-05-07T08:59:45.335Z,16.30
2023-05-07T09:02:13.613Z,17.70
2023-05-07T09:04:40.777Z,15.63
2023-05-07T09:07:07.808Z,18.10
2023-05-07T09:09:35.099Z,15.00
2023-05-07T09:12:03.246Z,16.00
2023-05-07T09:14:31.328Z,20.63
2023-05-07T09:16:58.564Z,19.17
2023-05-07T09:19:27.014Z,15.10
2023-05-07T09:22:07.933Z,17.80
2023-05-07T09:24:36.136Z,15.90
2023-05-07T09:27:04.172Z,18.15
2023-05-07T09:29:36.241Z,16.70
2023-05-07T09:32:07.798Z,16.45
2023-05-07T09:34:35.824Z,15.98
2023-05-07T09:37:08.367Z,15.75
2023-05-07T09:39:48.942Z,15.50
2023-05-07T09:42:16.336Z,17.75
2023-05-07T09:44:45.481Z,19.08
2023-05-07T09:47:19.272Z,14.10
2023-05-07T09:49:49.325Z,15.25
2023-05-07T09:52:17.178Z,16.60
2023-05-07T09:54:46.188Z,17.92
2023-05-07T09:57:14.314Z,16.88
2023-05-07T09:59:45.044Z,13.77
2023-05-07T10:02:14.205Z,15.93
2023-05-07T10:04:41.528Z,14.70
2023-05-07T10:07:09.622Z,12.95
2023-05-07T10:09:39.490Z,18.95
2023-05-07T10:12:07.845Z,13.40
2023-05-07T10:14:35.843Z,13.60
2023-05-07T10:17:04.192Z,12.20
2023-05-07T10:19:31.953Z,15.90
2023-05-07T10:22:06.315Z,14.18
2023-05-07T10:24:35.295Z,13.13
2023-05-07T10:27:05.159Z,15.85
2023-05-07T10:30:08.395Z,13.60
2023-05-07T10:32:48.243Z,13.98
2023-05-07T10:35:32.934Z,11.80
2023-05-07T10:38:00.517Z,12.48
2023-05-07T10:40:27.577Z,16.88
2023-05-07T10:43:03.426Z,12.82
2023-05-07T10:45:30.873Z,11.88
2023-05-07T10:48:21.437Z,11.13
2023-05-07T10:51:22.526Z,11.60
2023-05-07T10:53:49.736Z,14.68
2023-05-07T10:56:19.870Z,14.18
2023-05-07T10:58:46.965Z,12.63
2023-05-07T11:01:14.323Z,11.07
2023-05-07T11:04:16.887Z,16.33
2023-05-07T11:07:09.774Z,10.52
2023-05-07T11:09:56.989Z,9.68
2023-05-07T11:12:39.539Z,11.05
2023-05-07T11:15:16.648Z,12.25
2023-05-07T11:18:01.037Z,10.65
2023-05-07T11:21:00.042Z,14.77
2023-05-07T11:23:36.304Z,21.63
2023-05-07T11:26:12.100Z,9.32
2023-05-07T11:28:42.754Z,10.10
2023-05-07T11:31:11.177Z,10.88
2023-05-07T11:33:39.470Z,15.13
2023-05-07T11:36:09.387Z,8.40
2023-05-07T11:38:38.440Z,8.77
2023-05-07T11:41:06.260Z,7.57
2023-05-07T11:43:33.972Z,10.18
2023-05-07T11:46:13.013Z,12.23
2023-05-07T11:48:40.990Z,9.23
2023-05-07T11:51:13.226Z,9.90
2023-05-07T11:53:43.985Z,8.30
2023-05-07T11:56:17.153Z,8.63
2023-05-07T11:58:46.673Z,11.00
2023-05-07T12:01:17.435Z,8.80
2023-05-07T12:03:47.367Z,8.38
2023-05-07T12:06:17.357Z,6.93
2023-05-07T12:08:47.971Z,9.35
2023-05-07T12:11:22.775Z,10.70
2023-05-07T12:13:49.812Z,8.45
2023-05-07T12:16:17.261Z,8.68
2023-05-07T12:18:45.101Z,12.95
2023-05-07T12:21:15.152Z,10.27
2023-05-07T12:23:42.331Z,11.27
2023-05-07T12:26:09.760Z,9.95
2023-05-07T12:28:40.109Z,9.52
2023-05-07T12:31:08.440Z,8.50
2023-05-07T12:33:36.949Z,8.90
2023-05-07T12:36:08.471Z,8.20
2023-05-07T12:38:40.104Z,7.40
2023-05-07T12:41:09.586Z,8.15
2023-05-07T12:43:37.127Z,9.40
2023-05-07T12:46:08.763Z,7.90
2023-05-07T12:48:39.804Z,8.25
2023-05-07T12:51:08.662Z,12.52
2023-05-07T12:53:43.474Z,5.72
2023-05-07T12:56:10.989Z,6.32
2023-05-07T12:58:38.198Z,10.07
2023-05-07T13:01:10.856Z,9.43
2023-05-07T13:03:39.619Z,6.72
2023-05-07T13:06:11.622Z,8.30
2023-05-07T13:08:42.358Z,6.13
2023-05-07T13:11:11.226Z,6.18
2023-05-07T13:13:40.928Z,6.97
2023-05-07T13:16:11.563Z,8.10
2023-05-07T13:18:42.075Z,6.70
2023-05-07T13:21:09.417Z,6.55
2023-05-07T13:23:39.678Z,7.38
2023-05-07T13:26:18.483Z,5.82
2023-05-07T13:28:55.385Z,8.25
2023-05-07T13:31:22.590Z,7.78
2023-05-07T13:33:49.648Z,7.38
2023-05-07T13:36:16.706Z,5.82
2023-05-07T13:38:43.813Z,7.63
2023-05-07T13:41:10.875Z,6.45
2023-05-07T13:43:37.893Z,4.85
2023-05-07T13:46:04.980Z,6.28
2023-05-07T13:48:32.079Z,6.07
2023-05-07T13:50:59.068Z,8.93
2023-05-07T13:53:27.432Z,4.60
2023-05-07T13:55:54.497Z,5.32
2023-05-07T13:58:21.579Z,6.28
2023-05-07T14:00:48.702Z,5.90
2023-05-07T14:03:16.001Z,6.18
2023-05-07T14:05:43.162Z,6.43
2023-05-07T14:08:10.384Z,5.57
2023-05-07T14:10:37.489Z,4.47
2023-05-07T14:13:04.543Z,6.97
2023-05-07T14:15:33.363Z,7.38
2023-05-07T14:18:03.440Z,6.03
2023-05-07T14:20:32.059Z,5.15
2023-05-07T14:22:59.237Z,5.90
2023-05-07T14:25:26.297Z,4.57
2023-05-07T14:27:53.284Z,3.33
2023-05-07T14:30:20.648Z,5.05
2023-05-07T14:32:47.696Z,3.65
2023-05-07T14:35:15.011Z,4.65
2023-05-07T14:37:42.289Z,5.03
2023-05-07T14:40:10.787Z,3.88
2023-05-07T14:42:37.966Z,4.47
2023-05-07T14:45:05.722Z,2.80
2023-05-07T14:47:32.889Z,4.53
2023-05-07T14:50:02.102Z,6.38
2023-05-07T14:52:29.349Z,4.43
2023-05-07T14:54:56.549Z,4.30
2023-05-07T14:57:23.575Z,2.97
2023-05-07T14:59:50.628Z,5.05
2023-05-07T15:02:20.975Z,4.95
2023-05-07T15:04:49.578Z,4.90
2023-05-07T15:07:17.283Z,5.13
2023-05-07T15:09:45.640Z,3.22
2023-05-07T15:12:12.928Z,4.75
2023-05-07T15:14:40.631Z,4.55
2023-05-07T15:17:08.451Z,4.30
2023-05-07T15:19:35.752Z,3.17
2023-05-07T15:22:03.598Z,2.78
2023-05-07T15:24:31.680Z,4.80
2023-05-07T15:26:59.635Z,2.78
2023-05-07T15:29:27.212Z,2.92
2023-05-07T15:31:54.967Z,3.92
2023-05-07T15:34:23.810Z,4.45
2023-05-07T15:36:51.665Z,4.30
2023-05-07T15:39:19.338Z,2.67
2023-05-07T15:41:47.237Z,2.72
2023-05-07T15:44:15.034Z,7.18
2023-05-07T15:46:43.258Z,3.10
2023-05-07T15:49:12.134Z,3.33
2023-05-07T15:51:40.127Z,2.78
2023-05-07T15:54:08.264Z,3.63
2023-05-07T15:56:36.323Z,3.28
2023-05-07T15:59:04.678Z,3.47
2023-05-07T16:01:33.471Z,5.95
2023-05-07T16:04:01.581Z,3.88
2023-05-07T16:06:29.524Z,5.55
2023-05-07T16:08:57.527Z,4.13
2023-05-07T16:11:25.882Z,5.35
2023-05-07T16:13:53.869Z,2.83
2023-05-07T16:16:22.318Z,3.17
2023-05-07T16:18:50.281Z,5.88
2023-05-07T16:21:18.356Z,6.72
2023-05-07T16:23:46.746Z,7.93
2023-05-07T16:26:15.174Z,4.72
2023-05-07T16:28:43.496Z,4.63
2023-05-07T16:31:11.673Z,5.65
2023-05-07T16:33:39.724Z,7.07
2023-05-07T16:36:08.262Z,7.32
2023-05-07T16:38:36.418Z,9.43
2023-05-07T16:41:06.220Z,4.38
2023-05-07T16:43:34.138Z,9.52
2023-05-07T16:46:02.100Z,8.77
2023-05-07T16:48:29.990Z,6.22
2023-05-07T16:50:59.386Z,5.80
2023-05-07T16:53:27.316Z,4.88
2023-05-07T16:55:57.987Z,4.65
2023-05-07T16:58:29.233Z,4.75
2023-05-07T17:00:57.449Z,5.85
2023-05-07T17:03:25.554Z,7.68
2023-05-07T17:05:53.762Z,4.97
2023-05-07T17:08:22.841Z,10.38
2023-05-07T17:10:50.864Z,7.00
2023-05-07T17:13:18.857Z,6.00
2023-05-07T17:15:48.222Z,4.93
2023-05-07T17:18:16.333Z,5.60
2023-05-07T17:20:44.302Z,5.43
2023-05-07T17:23:12.253Z,7.60
2023-05-07T17:25:45.956Z,5.60
2023-05-07T17:28:14.257Z,4.68
2023-05-07T17:30:43.122Z,5.05
2023-05-07T17:33:20.678Z,7.63
2023-05-07T17:35:50.218Z,6.22
2023-05-07T17:38:18.358Z,6.65
2023-05-07T17:40:46.350Z,7.63
2023-05-07T17:43:14.359Z,4.68
2023-05-07T17:45:42.746Z,6.95
2023-05-07T17:48:10.748Z,8.18
2023-05-07T17:50:38.829Z,6.53
2023-05-07T17:53:06.783Z,5.00
2023-05-07T17:55:34.816Z,5.18
2023-05-07T17:58:03.955Z,5.50
2023-05-07T18:00:32.038Z,6.70
2023-05-07T18:03:00.755Z,8.32
2023-05-07T18:05:29.277Z,5.05
2023-05-07T18:07:57.710Z,6.43
2023-05-07T18:10:26.007Z,8.80
2023-05-07T18:12:54.083Z,5.47
2023-05-07T18:15:22.179Z,4.82
2023-05-07T18:17:50.305Z,6.28
2023-05-07T18:20:18.564Z,7.05
2023-05-07T18:22:46.860Z,13.05
2023-05-07T18:25:14.874Z,6.35
2023-05-07T18:27:42.974Z,5.78
2023-05-07T18:30:12.254Z,6.57
2023-05-07T18:32:40.497Z,5.22
2023-05-07T18:35:09.260Z,5.82
2023-05-07T18:37:37.298Z,7.65
2023-05-07T18:40:06.629Z,7.57
2023-05-07T18:42:36.956Z,8.30
2023-05-07T18:45:07.275Z,6.13
2023-05-07T18:47:35.708Z,8.20
2023-05-07T18:50:07.465Z,13.75
2023-05-07T18:52:38.027Z,8.32
2023-05-07T18:55:07.810Z,9.85
2023-05-07T18:57:35.992Z,12.90
2023-05-07T19:00:07.264Z,10.00
2023-05-07T19:02:35.347Z,10.35
2023-05-07T19:05:03.432Z,11.70
2023-05-07T19:07:31.712Z,10.70
2023-05-07T19:10:19.035Z,12.23
2023-05-07T19:12:47.095Z,11.80
2023-05-07T19:15:15.111Z,12.40
2023-05-07T19:17:43.096Z,13.77
2023-05-07T19:20:11.710Z,14.65
2023-05-07T19:22:39.605Z,13.70
2023-05-07T19:25:08.608Z,15.10
2023-05-07T19:27:36.583Z,13.73
2023-05-07T19:30:06.234Z,17.30
2023-05-07T19:32:35.313Z,15.20
2023-05-07T19:35:03.477Z,16.27
2023-05-07T19:37:31.610Z,18.17
2023-05-07T19:40:05.467Z,16.23
2023-05-07T19:42:33.896Z,16.13
2023-05-07T19:45:01.694Z,16.58
2023-05-07T19:47:29.590Z,15.48
2023-05-07T19:49:57.520Z,16.58
2023-05-07T19:52:25.434Z,14.18
2023-05-07T19:54:53.563Z,17.05
2023-05-07T19:57:21.639Z,16.70
2023-05-07T19:59:49.684Z,16.65
2023-05-07T20:02:17.798Z,16.17
2023-05-07T20:04:45.947Z,13.85
2023-05-07T20:07:13.948Z,19.50
2023-05-07T20:09:42.307Z,15.75
2023-05-07T20:12:10.384Z,19.90
2023-05-07T20:14:39.686Z,18.20
2023-05-07T20:17:07.689Z,16.25
2023-05-07T20:19:35.678Z,14.55
2023-05-07T20:22:03.550Z,16.38
2023-05-07T20:24:31.561Z,15.15
2023-05-07T20:26:59.776Z,17.23
2023-05-07T20:29:28.669Z,15.68
2023-05-07T20:31:56.640Z,18.15
2023-05-07T20:34:25.211Z,17.92
2023-05-07T20:36:53.933Z,17.45
2023-05-07T20:39:21.951Z,19.80
2023-05-07T20:41:49.964Z,18.40
2023-05-07T20:44:17.912Z,18.67
2023-05-07T20:46:45.899Z,20.13
2023-05-07T20:49:17.122Z,21.55
2023-05-07T20:51:44.894Z,20.27
2023-05-07T20:54:14.729Z,23.98
2023-05-07T20:56:42.282Z,21.58
2023-05-07T20:59:09.583Z,23.23
2023-05-07T21:01:36.693Z,24.83
2023-05-07T21:04:03.855Z,19.17
2023-05-07T21:06:31.123Z,23.48
2023-05-07T21:08:58.085Z,21.35
2023-05-07T21:11:25.493Z,21.33
2023-05-07T21:13:52.932Z,20.48
2023-05-07T21:16:21.546Z,22.02
2023-05-07T21:18:49.053Z,20.58
2023-05-07T21:21:18.912Z,20.13
2023-05-07T21:23:45.996Z,20.38
2023-05-07T21:26:18.950Z,22.33
2023-05-07T21:28:46.330Z,23.27
2023-05-07T21:31:13.651Z,19.95
2023-05-07T21:33:40.789Z,20.10
2023-05-07T21:36:08.463Z,20.52
2023-05-07T21:38:38.473Z,21.02
2023-05-07T21:41:06.126Z,17.95
2023-05-07T21:43:33.287Z,16.52
2023-05-07T21:46:00.491Z,15.30
2023-05-07T21:48:27.591Z,17.55
2023-05-07T21:51:07.126Z,15.15
2023-05-07T21:53:35.678Z,14.32
2023-05-07T21:56:04.700Z,13.95
2023-05-07T21:58:32.147Z,12.18
2023-05-07T22:01:01.103Z,12.65
2023-05-07T22:03:28.325Z,16.65
2023-05-07T22:05:55.737Z,13.48
2023-05-07T22:08:22.858Z,15.20
2023-05-07T22:10:49.891Z,14.68
2023-05-07T22:13:17.008Z,13.35
2023-05-07T22:15:53.729Z,15.15
2023-05-07T22:18:24.841Z,12.82
2023-05-07T22:20:54.520Z,13.60
2023-05-07T22:23:21.580Z,15.70
2023-05-07T22:25:48.649Z,15.15
2023-05-07T22:28:16.014Z,13.60
2023-05-07T22:30:43.241Z,15.35
2023-05-07T22:33:10.342Z,13.65
2023-05-07T22:35:37.326Z,14.32
2023-05-07T22:38:04.423Z,15.73
2023-05-07T22:40:31.471Z,17.23
2023-05-07T22:42:58.468Z,16.75
2023-05-07T22:45:25.551Z,14.50
2023-05-07T22:47:52.602Z,16.05
2023-05-07T22:50:19.994Z,15.20
2023-05-07T22:52:46.999Z,14.65
2023-05-07T22:55:14.081Z,15.02
2023-05-07T22:57:41.154Z,13.55
2023-05-07T23:00:09.953Z,15.75
2023-05-07T23:02:37.490Z,17.65
2023-05-07T23:05:04.994Z,17.25
2023-05-07T23:07:32.713Z,14.27
2023-05-07T23:09:59.779Z,17.60
2023-05-07T23:12:26.811Z,16.20
2023-05-07T23:14:53.971Z,17.30
2023-05-07T23:17:21.056Z,15.05
2023-05-07T23:19:48.323Z,14.10
2023-05-07T23:22:16.025Z,14.82
2023-05-07T23:24:43.218Z,18.10
2023-05-07T23:27:10.352Z,17.73
2023-05-07T23:29:37.427Z,15.75
2023-05-07T23:32:04.657Z,15.80
2023-05-07T23:34:31.696Z,15.38
2023-05-07T23:36:58.744Z,14.65
2023-05-07T23:39:25.952Z,14.05
2023-05-07T23:41:53.004Z,14.55
2023-05-07T23:44:19.997Z,15.02
2023-05-07T23:46:47.064Z,16.92
2023-05-07T23:49:14.128Z,16.35
2023-05-07T23:51:41.181Z,14.95
2023-05-07T23:54:08.190Z,14.82
2023-05-07T23:56:35.578Z,16.98
2023-05-07T23:59:02.587Z,14.45
